Time;durP1;ratioP1;P1;durP2;ratioP2;P2;SDS_P1;SDS_P2;PMS_P1;PMS_P2;Temp;Humidity;BMP_temperature;BMP_pressure;BME280_temperature;BME280_humidity;BME280_pressure;Samples;Min_cycle;Max_cycle;Signal;HPM_P1;HPM_P2
2023/06/06 00:01:24;;;;;;;;;;;;;;;19.64;29.82;100891.88;4989537;27;99283;-66
2023/06/06 00:03:51;;;;;;;;;;;;;;;19.60;29.87;100887.00;4988941;27;98421;-70
2023/06/06 00:06:20;;;;;;;;;;;;;;;19.57;29.76;100889.56;4986226;27;98113;-67
2023/06/06 00:08:52;;;;;;;;;;;;;;;19.54;29.87;100887.50;4992260;27;98059;-66
2023/06/06 00:11:20;;;;;;;;;;;;;;;19.50;29.68;100884.59;4993229;27;98621;-66
2023/06/06 00:13:49;;;;;;;;;;;;;;;19.48;29.81;100880.53;4994241;27;98486;-70
2023/06/06 00:16:16;;;;;;;;;;;;;;;19.45;29.72;100876.50;4990429;27;99956;-70
2023/06/06 00:18:45;;;;;;;;;;;;;;;19.42;29.96;100877.16;4987329;27;98162;-70
2023/06/06 00:21:12;;;;;;;;;;;;;;;19.40;29.85;100878.59;4986004;27;100165;-69
2023/06/06 00:23:38;;;;;;;;;;;;;;;19.36;29.96;100868.28;4990804;27;98931;-66
2023/06/06 00:26:04;;;;;;;;;;;;;;;19.35;30.00;100869.41;4990183;27;97891;-66
2023/06/06 00:28:31;;;;;;;;;;;;;;;19.34;29.84;100864.28;5002452;27;98221;-66
2023/06/06 00:30:58;;;;;;;;;;;;;;;19.33;29.99;100862.66;4992012;27;97975;-70
2023/06/06 00:33:25;;;;;;;;;;;;;;;19.32;29.99;100864.56;4992659;27;98211;-66
2023/06/06 00:35:51;;;;;;;;;;;;;;;19.31;29.82;100864.91;4993577;27;98193;-69
2023/06/06 00:38:18;;;;;;;;;;;;;;;19.31;29.89;100859.44;4989206;27;98081;-71
2023/06/06 00:40:44;;;;;;;;;;;;;;;19.30;29.87;100860.56;5001284;27;97888;-70
2023/06/06 00:43:11;;;;;;;;;;;;;;;19.27;30.07;100859.25;4990371;27;98311;-70
2023/06/06 00:45:37;;;;;;;;;;;;;;;19.26;29.89;100860.41;5007046;27;98082;-66
2023/06/06 00:48:05;;;;;;;;;;;;;;;19.25;30.05;100863.44;4990125;27;98119;-66
2023/06/06 00:50:32;;;;;;;;;;;;;;;19.24;29.88;100870.81;4990648;27;98036;-70
2023/06/06 00:52:59;;;;;;;;;;;;;;;19.23;29.84;100865.69;4991198;27;97936;-66
2023/06/06 00:55:25;;;;;;;;;;;;;;;19.19;30.10;100860.03;4987750;27;98761;-70
2023/06/06 00:57:52;;;;;;;;;;;;;;;19.17;30.19;100856.81;4992065;27;98194;-70
2023/06/06 01:00:18;;;;;;;;;;;;;;;19.16;30.17;100865.31;5002510;27;98049;-66
2023/06/06 01:02:47;;;;;;;;;;;;;;;19.15;30.09;100861.78;4989031;27;98323;-70
2023/06/06 01:05:19;;;;;;;;;;;;;;;19.13;30.19;100866.75;5002212;27;98233;-66
2023/06/06 01:07:47;;;;;;;;;;;;;;;19.11;30.19;100869.00;4994140;27;98428;-70
2023/06/06 01:10:13;;;;;;;;;;;;;;;19.07;30.02;100863.38;5004362;27;100099;-69
2023/06/06 01:12:59;;;;;;;;;;;;;;;19.05;30.09;100872.97;4991001;27;98103;-65
2023/06/06 01:15:28;;;;;;;;;;;;;;;19.01;30.10;100864.63;5019883;27;98100;-70
2023/06/06 01:17:55;;;;;;;;;;;;;;;18.98;30.02;100869.91;5005960;27;100175;-69
2023/06/06 01:20:23;;;;;;;;;;;;;;;18.94;30.28;100869.72;4989584;27;97845;-70
2023/06/06 01:22:50;;;;;;;;;;;;;;;18.89;30.00;100870.66;4990681;27;98054;-66
2023/06/06 01:25:21;;;;;;;;;;;;;;;18.85;30.09;100869.69;4988677;27;98184;-70
2023/06/06 01:27:53;;;;;;;;;;;;;;;18.83;30.32;100876.59;4989017;27;98290;-66
2023/06/06 01:30:23;;;;;;;;;;;;;;;18.78;30.30;100869.31;4988916;27;98387;-70
2023/06/06 01:32:59;;;;;;;;;;;;;;;18.76;30.33;100876.22;4986836;27;98111;-68
2023/06/06 01:35:50;;;;;;;;;;;;;;;18.73;30.35;100874.91;5020324;27;98244;-66
2023/06/06 01:38:20;;;;;;;;;;;;;;;18.68;30.19;100874.22;4992299;27;98168;-66
2023/06/06 01:40:47;;;;;;;;;;;;;;;18.65;30.33;100872.91;5004677;27;97986;-70
2023/06/06 01:43:15;;;;;;;;;;;;;;;18.61;30.40;100877.38;4988969;27;98440;-66
2023/06/06 01:45:43;;;;;;;;;;;;;;;18.56;30.44;100877.50;5007037;27;98552;-66
2023/06/06 01:48:09;;;;;;;;;;;;;;;18.52;30.25;100876.53;4990635;27;98054;-65
2023/06/06 01:50:36;;;;;;;;;;;;;;;18.49;30.37;100877.13;4992383;27;98068;-69
2023/06/06 01:53:02;;;;;;;;;;;;;;;18.48;30.34;100879.06;4990093;27;98006;-66
2023/06/06 01:55:28;;;;;;;;;;;;;;;18.48;30.38;100883.72;4992093;27;99105;-66
2023/06/06 01:57:56;;;;;;;;;;;;;;;18.48;30.34;100883.72;4987392;27;98339;-70
2023/06/06 02:00:22;;;;;;;;;;;;;;;18.48;30.49;100886.44;5017397;27;98239;-70
2023/06/06 02:02:49;;;;;;;;;;;;;;;18.46;30.36;100885.94;4992013;27;98006;-67
2023/06/06 02:05:16;;;;;;;;;;;;;;;18.43;30.57;100890.09;5006078;27;98030;-70
2023/06/06 02:07:42;;;;;;;;;;;;;;;18.42;30.53;100888.47;4991099;27;98049;-65
2023/06/06 02:10:09;;;;;;;;;;;;;;;18.40;30.52;100894.25;4990670;27;99939;-70
2023/06/06 02:12:35;;;;;;;;;;;;;;;18.38;30.57;100882.81;5002661;27;98819;-66
2023/06/06 02:15:03;;;;;;;;;;;;;;;18.36;30.45;100884.28;5000418;27;98277;-66
2023/06/06 02:17:29;;;;;;;;;;;;;;;18.33;30.60;100885.69;4990011;27;98798;-66
2023/06/06 02:19:56;;;;;;;;;;;;;;;18.31;30.54;100901.56;4987246;27;98292;-66
2023/06/06 02:22:22;;;;;;;;;;;;;;;18.29;30.43;100897.53;4986158;27;98392;-66
2023/06/06 02:24:52;;;;;;;;;;;;;;;18.27;30.44;100907.94;4993861;27;97832;-66
2023/06/06 02:27:21;;;;;;;;;;;;;;;18.25;30.61;100910.97;4987768;27;98094;-67
2023/06/06 02:29:47;;;;;;;;;;;;;;;18.26;30.55;100914.50;4993248;27;98190;-70
2023/06/06 02:32:14;;;;;;;;;;;;;;;18.21;30.65;100909.97;5002660;27;97973;-70
2023/06/06 02:34:40;;;;;;;;;;;;;;;18.17;30.85;100902.72;5018479;27;98083;-70
2023/06/06 02:37:06;;;;;;;;;;;;;;;18.13;30.59;100899.81;5018906;27;98054;-66
2023/06/06 02:39:33;;;;;;;;;;;;;;;18.07;30.84;100898.28;5003803;27;98157;-66
2023/06/06 02:42:00;;;;;;;;;;;;;;;18.02;30.81;100893.75;4989513;27;98008;-66
2023/06/06 02:44:30;;;;;;;;;;;;;;;17.99;30.88;100897.09;4982521;27;98170;-70
2023/06/06 02:46:59;;;;;;;;;;;;;;;17.97;30.86;100893.88;5007005;27;100086;-66
2023/06/06 02:49:27;;;;;;;;;;;;;;;17.97;30.84;100910.25;4989996;27;98065;-70
2023/06/06 02:51:55;;;;;;;;;;;;;;;17.96;30.90;100910.53;4992098;27;98150;-70
2023/06/06 02:54:21;;;;;;;;;;;;;;;17.95;31.01;100915.19;4984312;27;98118;-69
2023/06/06 02:56:48;;;;;;;;;;;;;;;17.94;30.82;100912.78;4991609;27;98317;-66
2023/06/06 02:59:15;;;;;;;;;;;;;;;17.92;30.82;100910.38;5006269;27;98531;-67
2023/06/06 03:01:44;;;;;;;;;;;;;;;17.93;30.90;100913.91;4986366;27;97940;-70
2023/06/06 03:04:13;;;;;;;;;;;;;;;17.91;30.89;100911.44;4991233;27;99209;-70
2023/06/06 03:06:40;;;;;;;;;;;;;;;17.90;30.97;100907.94;5006260;27;98599;-70
2023/06/06 03:09:07;;;;;;;;;;;;;;;17.89;30.85;100905.50;4994142;27;99726;-70
2023/06/06 03:11:34;;;;;;;;;;;;;;;17.87;31.00;100907.72;4987587;27;99151;-69
2023/06/06 03:14:01;;;;;;;;;;;;;;;17.86;30.98;100906.13;4961465;27;97993;-66
2023/06/06 03:16:28;;;;;;;;;;;;;;;17.84;30.91;100922.78;4967764;27;98177;-66
2023/06/06 03:18:55;;;;;;;;;;;;;;;17.83;31.29;100925.81;4965679;27;98039;-66
2023/06/06 03:21:21;;;;;;;;;;;;;;;17.80;30.97;100923.69;4967857;27;98242;-70
2023/06/06 03:23:50;;;;;;;;;;;;;;;17.78;30.97;100921.28;4970788;27;97856;-66
2023/06/06 03:26:16;;;;;;;;;;;;;;;17.75;30.95;100910.16;4970785;27;99595;-66
2023/06/06 03:28:42;;;;;;;;;;;;;;;17.73;31.20;100918.63;4986706;27;97988;-70
2023/06/06 03:31:09;;;;;;;;;;;;;;;17.72;31.08;100910.75;4968090;27;97952;-70
2023/06/06 03:33:37;;;;;;;;;;;;;;;17.71;31.15;100914.59;4982815;27;98363;-70
2023/06/06 03:36:06;;;;;;;;;;;;;;;17.69;31.14;100919.56;4982636;27;98168;-70
2023/06/06 03:38:32;;;;;;;;;;;;;;;17.71;31.11;100926.28;4967797;27;98836;-66
2023/06/06 03:40:58;;;;;;;;;;;;;;;17.71;31.15;100920.84;4973123;27;98177;-66
2023/06/06 03:43:25;;;;;;;;;;;;;;;17.70;31.18;100916.50;4972125;27;99561;-66
2023/06/06 03:45:51;;;;;;;;;;;;;;;17.70;31.09;100916.50;4968053;27;98014;-70
2023/06/06 03:48:18;;;;;;;;;;;;;;;17.71;31.20;100901.75;4967633;27;98913;-66
2023/06/06 03:50:44;;;;;;;;;;;;;;;17.72;31.24;100897.91;4984949;27;100963;-69
2023/06/06 03:53:11;;;;;;;;;;;;;;;17.76;31.27;100898.94;4967410;27;97858;-66
2023/06/06 03:55:38;;;;;;;;;;;;;;;17.83;31.22;100899.34;4970997;27;98073;-66
2023/06/06 03:58:05;;;;;;;;;;;;;;;17.92;31.32;100913.09;4986323;27;100970;-70
2023/06/06 04:00:32;;;;;;;;;;;;;;;17.98;31.25;100905.59;4969220;27;98106;-70
2023/06/06 04:03:00;;;;;;;;;;;;;;;18.04;31.32;100910.63;4967597;27;98327;-66
2023/06/06 04:05:26;;;;;;;;;;;;;;;18.10;31.37;100905.88;4964997;27;98344;-69
2023/06/06 04:07:52;;;;;;;;;;;;;;;18.15;31.30;100903.00;4985883;27;98181;-66
2023/06/06 04:10:19;;;;;;;;;;;;;;;18.19;31.37;100895.03;4965328;27;98125;-66
2023/06/06 04:12:46;;;;;;;;;;;;;;;18.23;31.20;100891.38;4994448;27;98555;-69
2023/06/06 04:15:13;;;;;;;;;;;;;;;18.26;31.39;100882.56;4989112;27;99825;-66
2023/06/06 04:17:39;;;;;;;;;;;;;;;18.30;31.21;100883.56;4988785;27;98218;-66
2023/06/06 04:20:08;;;;;;;;;;;;;;;18.33;31.51;100899.31;4988085;27;98165;-69
2023/06/06 04:22:35;;;;;;;;;;;;;;;18.35;31.47;100897.09;5004610;27;98108;-66
2023/06/06 04:25:01;;;;;;;;;;;;;;;18.37;31.47;100894.06;4983214;27;98030;-69
2023/06/06 04:27:28;;;;;;;;;;;;;;;18.38;31.38;100899.19;4982952;27;98568;-66
2023/06/06 04:29:57;;;;;;;;;;;;;;;18.40;31.33;100893.44;4983860;27;98470;-66
2023/06/06 04:32:23;;;;;;;;;;;;;;;18.40;31.38;100896.19;4987361;27;98377;-66
2023/06/06 04:34:57;;;;;;;;;;;;;;;18.43;31.36;100890.09;5005556;27;98947;-69
2023/06/06 04:37:24;;;;;;;;;;;;;;;18.44;31.38;100899.09;4989925;27;98028;-70
2023/06/06 04:39:53;;;;;;;;;;;;;;;18.45;31.56;100900.69;4985510;27;98090;-69
2023/06/06 04:42:32;;;;;;;;;;;;;;;18.43;31.47;100898.28;4988886;27;97858;-66
2023/06/06 04:45:02;;;;;;;;;;;;;;;18.42;31.40;100895.84;4984882;27;100598;-66
2023/06/06 04:47:29;;;;;;;;;;;;;;;18.42;31.51;100893.13;5004197;27;99017;-69
2023/06/06 04:49:56;;;;;;;;;;;;;;;18.44;31.46;100890.91;4988732;27;98399;-69
2023/06/06 04:52:23;;;;;;;;;;;;;;;18.46;31.50;100894.13;4988483;27;98937;-70
2023/06/06 04:54:51;;;;;;;;;;;;;;;18.46;31.67;100900.38;4991047;27;97969;-66
2023/06/06 04:57:19;;;;;;;;;;;;;;;18.48;31.57;100894.63;4987365;27;99812;-66
2023/06/06 04:59:52;;;;;;;;;;;;;;;18.49;31.44;100907.16;4985986;27;100824;-70
2023/06/06 05:02:22;;;;;;;;;;;;;;;18.53;31.70;100899.97;4984504;27;99090;-66
2023/06/06 05:04:55;;;;;;;;;;;;;;;18.54;31.28;100901.56;4986212;27;98577;-70
2023/06/06 05:07:24;;;;;;;;;;;;;;;18.57;31.48;100904.47;4986763;27;98258;-69
2023/06/06 05:09:54;;;;;;;;;;;;;;;18.60;31.61;100903.06;4986393;27;98017;-69
2023/06/06 05:12:22;;;;;;;;;;;;;;;18.62;31.46;100898.09;4986056;27;98219;-66
2023/06/06 05:14:51;;;;;;;;;;;;;;;18.63;31.61;100903.25;4988145;27;100485;-66
2023/06/06 05:17:20;;;;;;;;;;;;;;;18.67;31.44;100908.91;4986065;27;98322;-69
2023/06/06 05:19:46;;;;;;;;;;;;;;;18.73;31.65;100909.59;4986404;27;98074;-66
2023/06/06 05:22:17;;;;;;;;;;;;;;;18.76;31.44;100903.53;4982392;27;97989;-70
2023/06/06 05:24:43;;;;;;;;;;;;;;;18.80;31.44;100907.25;5003810;27;99215;-66
2023/06/06 05:27:10;;;;;;;;;;;;;;;18.84;31.58;100908.22;4992124;27;99759;-69
2023/06/06 05:29:37;;;;;;;;;;;;;;;18.88;31.55;100910.03;4984256;27;100050;-70
2023/06/06 05:32:04;;;;;;;;;;;;;;;18.87;31.67;100908.41;4986516;27;97991;-69
2023/06/06 05:34:33;;;;;;;;;;;;;;;18.90;31.53;100909.69;4998001;27;98644;-66
2023/06/06 05:36:59;;;;;;;;;;;;;;;18.93;31.56;100913.75;4986956;27;98136;-66
2023/06/06 05:39:26;;;;;;;;;;;;;;;18.94;31.69;100921.59;4998519;27;98200;-66
2023/06/06 05:41:54;;;;;;;;;;;;;;;18.94;31.53;100916.16;4990397;27;98021;-69
2023/06/06 05:44:25;;;;;;;;;;;;;;;18.94;31.76;100929.00;4984069;27;98485;-66
2023/06/06 05:46:56;;;;;;;;;;;;;;;18.94;31.60;100924.34;5018587;27;98045;-66
2023/06/06 05:49:23;;;;;;;;;;;;;;;18.95;31.58;100925.16;4999932;27;97890;-66
2023/06/06 05:51:49;;;;;;;;;;;;;;;18.96;31.76;100926.78;4984622;27;97998;-69
2023/06/06 05:54:15;;;;;;;;;;;;;;;18.98;31.50;100922.63;4988761;27;99893;-66
2023/06/06 05:56:43;;;;;;;;;;;;;;;18.97;31.76;100923.72;5001499;27;98271;-66
2023/06/06 05:59:10;;;;;;;;;;;;;;;18.99;31.62;100923.44;4978023;27;100391;-69
2023/06/06 06:01:39;;;;;;;;;;;;;;;19.04;31.77;100926.00;4980461;27;98138;-66
2023/06/06 06:04:06;;;;;;;;;;;;;;;19.09;31.70;100925.88;5007744;27;99953;-69
2023/06/06 06:06:35;;;;;;;;;;;;;;;19.13;31.66;100924.13;5004911;27;98369;-66
2023/06/06 06:09:03;;;;;;;;;;;;;;;19.18;31.63;100928.66;4979466;27;98741;-66
2023/06/06 06:11:32;;;;;;;;;;;;;;;19.21;31.61;100931.56;4987671;27;98431;-66
2023/06/06 06:13:59;;;;;;;;;;;;;;;19.23;31.74;100928.53;4979142;27;98498;-66
2023/06/06 06:16:26;;;;;;;;;;;;;;;19.23;31.64;100937.53;4977320;27;97860;-66
2023/06/06 06:18:52;;;;;;;;;;;;;;;19.28;31.59;100937.38;4987270;27;98247;-66
2023/06/06 06:21:19;;;;;;;;;;;;;;;19.32;31.55;100943.03;4983666;27;98687;-66
2023/06/06 06:23:46;;;;;;;;;;;;;;;19.38;31.52;100939.06;4983433;27;98239;-69
2023/06/06 06:26:12;;;;;;;;;;;;;;;19.46;31.59;100937.47;4985349;27;97799;-70
2023/06/06 06:28:38;;;;;;;;;;;;;;;19.53;31.72;100932.34;4988993;27;98715;-69
2023/06/06 06:31:04;;;;;;;;;;;;;;;19.61;31.56;100937.88;5010390;27;98236;-66
2023/06/06 06:33:33;;;;;;;;;;;;;;;19.67;31.58;100935.81;4984003;27;97943;-70
2023/06/06 06:35:59;;;;;;;;;;;;;;;19.72;31.68;100937.59;4984202;27;98008;-69
2023/06/06 06:38:26;;;;;;;;;;;;;;;19.78;31.77;100930.84;5005753;27;98118;-69
2023/06/06 06:40:54;;;;;;;;;;;;;;;19.85;31.47;100937.47;4988641;27;98142;-70
2023/06/06 06:43:20;;;;;;;;;;;;;;;19.93;31.49;100941.34;4986368;27;98473;-69
2023/06/06 06:45:47;;;;;;;;;;;;;;;19.99;31.61;100939.25;4999483;27;100467;-66
2023/06/06 06:48:13;;;;;;;;;;;;;;;20.02;31.61;100935.88;5017889;27;97985;-66
2023/06/06 06:50:40;;;;;;;;;;;;;;;20.06;31.59;100934.94;4988803;27;98390;-66
2023/06/06 06:53:08;;;;;;;;;;;;;;;20.08;31.49;100942.81;4988499;27;99823;-70
2023/06/06 06:55:37;;;;;;;;;;;;;;;20.11;31.58;100944.91;4986835;27;98028;-70
2023/06/06 06:58:03;;;;;;;;;;;;;;;20.11;31.66;100939.44;5006824;27;97892;-67
2023/06/06 07:00:30;;;;;;;;;;;;;;;20.04;31.83;100947.31;5003129;27;98121;-70
2023/06/06 07:02:58;;;;;;;;;;;;;;;19.92;31.82;100942.44;5000066;27;98358;-66
2023/06/06 07:05:24;;;;;;;;;;;;;;;19.79;31.95;100946.94;4999976;27;98273;-69
2023/06/06 07:07:52;;;;;;;;;;;;;;;19.64;32.08;100954.78;4986200;27;98091;-70
2023/06/06 07:10:19;;;;;;;;;;;;;;;19.48;32.17;100957.09;4992044;27;98753;-69
2023/06/06 07:12:52;;;;;;;;;;;;;;;19.34;32.16;100955.28;5004597;27;99604;-67
2023/06/06 07:15:19;;;;;;;;;;;;;;;19.20;32.23;100956.47;5002198;27;101419;-70
2023/06/06 07:17:48;;;;;;;;;;;;;;;19.12;32.41;100963.50;4988527;27;97916;-71
2023/06/06 07:20:14;;;;;;;;;;;;;;;19.09;32.48;100961.38;5005659;27;98126;-68
2023/06/06 07:22:41;;;;;;;;;;;;;;;19.04;32.51;100956.88;5000660;27;98582;-68
2023/06/06 07:25:08;;;;;;;;;;;;;;;18.98;32.53;100957.31;4984307;27;98362;-68
2023/06/06 07:27:36;;;;;;;;;;;;;;;18.95;32.24;100958.75;4989215;27;98118;-67
2023/06/06 07:30:11;;;;;;;;;;;;;;;18.93;32.34;100960.97;4989131;27;98125;-67
2023/06/06 07:32:39;;;;;;;;;;;;;;;18.91;32.29;100957.75;4990547;27;98507;-68
2023/06/06 07:35:06;;;;;;;;;;;;;;;18.99;32.42;100957.00;4984942;27;98556;-71
2023/06/06 07:37:32;;;;;;;;;;;;;;;19.18;32.20;100953.25;4988229;27;98444;-70
2023/06/06 07:39:58;;;;;;;;;;;;;;;19.38;32.12;100958.19;4987787;27;98495;-67
2023/06/06 07:42:24;;;;;;;;;;;;;;;19.54;31.91;100959.38;4987272;27;98425;-67
2023/06/06 07:44:55;;;;;;;;;;;;;;;19.68;31.81;100956.53;4986469;27;98181;-71
2023/06/06 07:47:25;;;;;;;;;;;;;;;19.78;31.80;100955.47;4991111;27;97976;-71
2023/06/06 07:49:51;;;;;;;;;;;;;;;19.81;32.00;100954.84;4985696;27;98291;-71
2023/06/06 07:52:18;;;;;;;;;;;;;;;19.80;32.05;100959.47;4987661;27;100164;-72
2023/06/06 07:54:44;;;;;;;;;;;;;;;19.80;32.06;100953.22;4984653;27;98075;-71
2023/06/06 07:57:11;;;;;;;;;;;;;;;19.84;31.83;100957.72;4988026;27;98059;-72
2023/06/06 07:59:38;;;;;;;;;;;;;;;19.88;32.07;100951.63;5012739;27;98002;-70
2023/06/06 08:02:05;;;;;;;;;;;;;;;19.93;32.08;100955.03;4991367;27;98004;-67
2023/06/06 08:04:32;;;;;;;;;;;;;;;19.93;31.94;100948.75;5007190;27;98079;-70
2023/06/06 08:06:58;;;;;;;;;;;;;;;19.96;32.17;100950.84;5000853;27;98556;-71
2023/06/06 08:09:25;;;;;;;;;;;;;;;20.21;31.96;100944.59;4988675;27;98043;-71
2023/06/06 08:11:51;;;;;;;;;;;;;;;20.37;31.76;100944.94;5007179;27;98170;-71
2023/06/06 08:14:17;;;;;;;;;;;;;;;20.54;31.76;100946.91;4989218;27;98135;-71
2023/06/06 08:16:44;;;;;;;;;;;;;;;20.57;31.71;100946.25;4988496;27;98906;-71
2023/06/06 08:19:11;;;;;;;;;;;;;;;20.60;31.88;100945.63;4991451;27;98387;-70
2023/06/06 08:21:37;;;;;;;;;;;;;;;20.66;31.83;100947.03;4990546;27;98009;-71
2023/06/06 08:24:03;;;;;;;;;;;;;;;20.68;31.83;100949.47;4989487;27;99341;-71
2023/06/06 08:26:30;;;;;;;;;;;;;;;20.70;31.93;100945.28;5003744;27;106119;-68
2023/06/06 08:28:57;;;;;;;;;;;;;;;20.72;31.86;100953.19;4990546;27;98123;-71
2023/06/06 08:31:24;;;;;;;;;;;;;;;20.77;31.97;100947.53;4989016;27;99506;-68
2023/06/06 08:33:51;;;;;;;;;;;;;;;20.79;31.88;100950.75;4990813;27;98149;-68
2023/06/06 08:36:18;;;;;;;;;;;;;;;20.76;32.09;100940.44;4992152;27;98012;-71
2023/06/06 08:38:44;;;;;;;;;;;;;;;20.82;31.94;100937.19;4992375;27;98182;-67
2023/06/06 08:41:11;;;;;;;;;;;;;;;20.83;32.09;100938.81;4992627;27;97873;-68
2023/06/06 08:43:38;;;;;;;;;;;;;;;21.11;31.88;100938.44;4986959;27;98050;-71
2023/06/06 08:46:05;;;;;;;;;;;;;;;21.22;31.72;100939.69;4985940;27;98070;-70
2023/06/06 08:48:34;;;;;;;;;;;;;;;21.50;31.76;100942.03;4983261;27;98189;-67
2023/06/06 08:51:03;;;;;;;;;;;;;;;21.71;31.45;100937.41;4992383;27;98124;-71
2023/06/06 08:53:34;;;;;;;;;;;;;;;21.87;31.53;100939.59;5002667;27;98133;-68
2023/06/06 08:56:00;;;;;;;;;;;;;;;21.74;31.67;100939.50;5002199;27;99844;-67
2023/06/06 08:58:28;;;;;;;;;;;;;;;21.70;31.79;100937.75;5003322;27;98199;-67
2023/06/06 09:00:57;;;;;;;;;;;;;;;21.92;31.72;100939.38;4991771;27;98293;-71
2023/06/06 09:03:24;;;;;;;;;;;;;;;21.93;31.69;100932.75;5007630;27;98396;-71
2023/06/06 09:05:51;;;;;;;;;;;;;;;22.09;31.54;100938.47;4988031;27;98466;-71
2023/06/06 09:08:21;;;;;;;;;;;;;;;22.08;31.59;100936.84;4996270;27;98039;-71
2023/06/06 09:10:47;;;;;;;;;;;;;;;22.33;31.63;100938.66;4990284;27;97871;-67
2023/06/06 09:13:14;;;;;;;;;;;;;;;22.72;31.31;100937.34;4989885;27;99906;-67
2023/06/06 09:15:41;;;;;;;;;;;;;;;23.03;31.28;100934.16;4990311;27;98255;-67
2023/06/06 09:18:08;;;;;;;;;;;;;;;23.61;30.78;100936.03;4992413;27;98710;-67
2023/06/06 09:20:34;;;;;;;;;;;;;;;23.99;30.60;100928.22;5003309;27;98152;-71
2023/06/06 09:23:02;;;;;;;;;;;;;;;23.83;30.95;100926.53;4990384;27;98230;-71
2023/06/06 09:25:29;;;;;;;;;;;;;;;23.51;31.20;100935.34;5001483;27;98965;-71
2023/06/06 09:28:02;;;;;;;;;;;;;;;23.45;31.26;100933.16;4991109;27;98033;-71
2023/06/06 09:30:32;;;;;;;;;;;;;;;23.44;31.54;100932.34;4991072;27;97879;-67
2023/06/06 09:33:01;;;;;;;;;;;;;;;23.32;31.69;100937.84;4997878;27;99977;-67
2023/06/06 09:35:41;;;;;;;;;;;;;;;23.31;31.73;100935.44;4993378;27;98102;-68
2023/06/06 09:38:20;;;;;;;;;;;;;;;23.18;31.65;100934.59;4993090;27;98156;-67
2023/06/06 09:40:47;;;;;;;;;;;;;;;23.09;31.91;100936.66;5005777;27;98243;-67
2023/06/06 09:43:15;;;;;;;;;;;;;;;22.85;32.05;100940.13;5003739;27;98051;-71
2023/06/06 09:45:51;;;;;;;;;;;;;;;22.60;32.10;100941.97;4993659;27;98186;-71
2023/06/06 09:48:29;;;;;;;;;;;;;;;22.66;31.95;100943.38;5010063;27;98126;-71
2023/06/06 09:50:56;;;;;;;;;;;;;;;22.77;32.05;100942.63;5006292;27;98803;-67
2023/06/06 09:53:31;;;;;;;;;;;;;;;22.75;32.04;100936.66;5005336;27;98156;-71
2023/06/06 09:56:02;;;;;;;;;;;;;;;22.66;32.03;100940.63;4989839;27;98390;-68
2023/06/06 09:58:29;;;;;;;;;;;;;;;22.54;32.25;100939.44;5004025;27;98327;-71
2023/06/06 10:00:58;;;;;;;;;;;;;;;22.35;32.37;100944.59;4986599;27;98064;-71
2023/06/06 10:03:26;;;;;;;;;;;;;;;22.16;32.47;100939.56;4983198;27;99931;-67
2023/06/06 10:05:52;;;;;;;;;;;;;;;22.09;32.42;100930.25;5021815;27;98232;-67
2023/06/06 10:08:19;;;;;;;;;;;;;;;22.04;32.47;100939.47;5002032;27;99576;-71
2023/06/06 10:10:49;;;;;;;;;;;;;;;22.02;32.50;100934.31;4991430;27;100177;-67
2023/06/06 10:13:18;;;;;;;;;;;;;;;22.04;32.40;100931.22;5016973;27;98403;-71
2023/06/06 10:15:47;;;;;;;;;;;;;;;21.99;32.34;100929.50;4971639;27;102153;-67
2023/06/06 10:18:14;;;;;;;;;;;;;;;21.97;32.35;100931.78;4984884;27;99035;-72
2023/06/06 10:20:40;;;;;;;;;;;;;;;21.97;32.43;100933.72;4987394;27;99648;-71
2023/06/06 10:23:08;;;;;;;;;;;;;;;21.95;32.38;100919.50;4986800;27;97925;-67
2023/06/06 10:25:37;;;;;;;;;;;;;;;21.94;32.33;100928.88;5004406;27;99483;-67
2023/06/06 10:28:30;;;;;;;;;;;;;;;21.87;32.44;100923.91;4992656;27;98218;-67
2023/06/06 10:31:19;;;;;;;;;;;;;;;21.76;32.68;100920.75;5003591;27;98151;-71
2023/06/06 10:33:48;;;;;;;;;;;;;;;21.73;32.66;100929.66;4997023;27;99921;-67
2023/06/06 10:36:18;;;;;;;;;;;;;;;21.78;32.58;100920.44;4992636;27;99004;-67
2023/06/06 10:39:20;;;;;;;;;;;;;;;21.90;32.49;100919.72;4989250;27;100341;-67
2023/06/06 10:41:58;;;;;;;;;;;;;;;22.10;32.25;100921.66;5002940;27;97948;-67
2023/06/06 10:44:37;;;;;;;;;;;;;;;22.35;32.10;100919.88;4986699;27;98292;-67
2023/06/06 10:47:33;;;;;;;;;;;;;;;22.57;32.06;100920.69;5008169;27;98022;-71
2023/06/06 10:50:11;;;;;;;;;;;;;;;22.70;31.74;100925.06;5024177;27;98397;-67
2023/06/06 10:52:44;;;;;;;;;;;;;;;22.77;31.96;100925.31;5028045;27;97833;-71
2023/06/06 10:55:22;;;;;;;;;;;;;;;22.69;32.04;100924.28;5004757;27;97948;-71
2023/06/06 10:57:53;;;;;;;;;;;;;;;22.64;32.21;100923.69;5019619;27;98001;-70
2023/06/06 11:00:25;;;;;;;;;;;;;;;22.62;32.20;100925.97;5019019;27;98530;-71
2023/06/06 11:02:52;;;;;;;;;;;;;;;22.61;32.20;100922.41;4995036;27;99765;-71
2023/06/06 11:05:21;;;;;;;;;;;;;;;22.65;32.09;100919.78;4986593;27;99450;-67
2023/06/06 11:07:49;;;;;;;;;;;;;;;22.65;32.12;100923.34;4985852;27;98636;-71
2023/06/06 11:10:21;;;;;;;;;;;;;;;22.76;32.10;100918.22;5006138;27;99246;-67
2023/06/06 11:12:50;;;;;;;;;;;;;;;22.84;31.95;100916.53;5004814;27;97962;-67
2023/06/06 11:15:29;;;;;;;;;;;;;;;22.89;31.99;100913.56;4990967;27;98068;-70
2023/06/06 11:18:04;;;;;;;;;;;;;;;22.78;32.09;100913.19;4996501;27;97937;-67
2023/06/06 11:20:42;;;;;;;;;;;;;;;22.48;32.32;100913.31;5008610;27;98150;-67
2023/06/06 11:23:10;;;;;;;;;;;;;;;22.28;32.57;100920.44;4990818;27;99821;-71
2023/06/06 11:25:37;;;;;;;;;;;;;;;22.12;32.73;100913.09;4994956;27;99651;-71
2023/06/06 11:28:04;;;;;;;;;;;;;;;21.96;32.76;100910.94;4990295;27;98019;-70
2023/06/06 11:30:36;;;;;;;;;;;;;;;21.79;32.83;100914.59;4994042;27;98138;-67
2023/06/06 11:33:12;;;;;;;;;;;;;;;21.59;32.99;100906.34;4989610;27;98217;-67
2023/06/06 11:35:40;;;;;;;;;;;;;;;21.40;33.13;100915.78;5009901;27;98101;-67
2023/06/06 11:38:08;;;;;;;;;;;;;;;21.29;33.18;100912.56;5008541;27;98250;-71
2023/06/06 11:40:35;;;;;;;;;;;;;;;21.20;33.12;100909.06;4989996;27;98157;-67
2023/06/06 11:43:02;;;;;;;;;;;;;;;21.15;33.34;100901.03;4993299;27;97923;-71
2023/06/06 11:45:31;;;;;;;;;;;;;;;21.26;32.99;100912.41;4994172;27;98289;-70
2023/06/06 11:47:58;;;;;;;;;;;;;;;21.52;32.73;100907.66;4986719;27;98138;-68
2023/06/06 11:50:30;;;;;;;;;;;;;;;21.81;32.45;100909.59;5003356;27;97978;-71
2023/06/06 11:52:57;;;;;;;;;;;;;;;22.04;32.39;100901.84;4989362;27;98180;-71
2023/06/06 11:55:39;;;;;;;;;;;;;;;22.13;32.42;100904.56;4988804;27;98047;-71
2023/06/06 11:58:07;;;;;;;;;;;;;;;22.00;32.52;100906.38;5008288;27;98133;-67
2023/06/06 12:00:33;;;;;;;;;;;;;;;21.73;32.84;100901.41;4989507;27;98515;-67
2023/06/06 12:03:01;;;;;;;;;;;;;;;21.57;32.99;100914.88;5002870;27;98185;-67
2023/06/06 12:05:28;;;;;;;;;;;;;;;21.57;32.95;100909.41;5011188;27;98138;-70
2023/06/06 12:07:58;;;;;;;;;;;;;;;21.63;32.90;100904.53;4995814;27;99478;-66
2023/06/06 12:10:29;;;;;;;;;;;;;;;21.71;32.97;100904.50;4988228;27;99348;-67
2023/06/06 12:12:56;;;;;;;;;;;;;;;21.78;32.77;100903.97;4993644;27;98392;-70
2023/06/06 12:15:27;;;;;;;;;;;;;;;21.85;32.73;100900.69;5003416;27;98449;-67
2023/06/06 12:18:00;;;;;;;;;;;;;;;21.92;32.58;100899.03;4991427;27;98507;-68
2023/06/06 12:20:26;;;;;;;;;;;;;;;21.99;32.76;100895.75;5007191;27;97948;-67
2023/06/06 12:22:54;;;;;;;;;;;;;;;22.03;32.70;100900.25;4992257;27;98186;-67
2023/06/06 12:25:28;;;;;;;;;;;;;;;22.01;32.63;100901.72;4991054;27;98693;-67
2023/06/06 12:27:54;;;;;;;;;;;;;;;21.98;32.63;100903.19;4996039;27;98102;-70
2023/06/06 12:30:31;;;;;;;;;;;;;;;21.96;32.77;100904.66;4994729;27;98554;-67
2023/06/06 12:33:02;;;;;;;;;;;;;;;21.92;32.85;100898.22;5002026;27;98803;-68
2023/06/06 12:35:28;;;;;;;;;;;;;;;21.88;32.82;100902.78;4990148;27;98315;-70
2023/06/06 12:38:01;;;;;;;;;;;;;;;21.86;32.86;100903.13;4995737;27;97966;-70
2023/06/06 12:40:33;;;;;;;;;;;;;;;21.85;32.84;100904.25;4997481;27;98044;-70
2023/06/06 12:43:03;;;;;;;;;;;;;;;21.85;32.77;100900.69;4994329;27;98654;-67